Time;durP1;ratioP1;P1;durP2;ratioP2;P2;SDS_P1;SDS_P2;PMS_P1;PMS_P2;Temp;Humidity;BMP_temperature;BMP_pressure;BME280_temperature;BME280_humidity;BME280_pressure;Samples;Min_cycle;Max_cycle;Signal;HPM_P1;HPM_P2
2022/05/14 00:01:16;;;;;;;2.30;1.10;;;8.90;99.90;;;;;;4922331;29;20167;-86
2022/05/14 00:03:44;;;;;;;4.30;1.20;;;8.80;99.90;;;;;;4927499;29;20051;-85
2022/05/14 00:06:13;;;;;;;8.48;1.35;;;8.80;99.90;;;;;;4942871;29;20428;-85
2022/05/14 00:08:42;;;;;;;2.38;1.02;;;8.80;99.90;;;;;;4939357;29;20047;-85
2022/05/14 00:13:57;;;;;;;4.40;1.00;;;8.80;99.90;;;;;;4939484;29;20052;-84
2022/05/14 00:16:26;;;;;;;3.55;1.20;;;8.70;99.90;;;;;;4938462;29;20059;-85
2022/05/14 00:18:55;;;;;;;4.22;1.27;;;8.70;99.90;;;;;;4942308;29;20047;-85
2022/05/14 00:21:23;;;;;;;3.03;1.55;;;8.70;99.90;;;;;;4945523;29;20052;-84
2022/05/14 00:23:52;;;;;;;4.78;1.38;;;8.60;99.90;;;;;;4944945;29;20059;-85
2022/05/14 00:26:21;;;;;;;5.60;1.55;;;8.60;99.90;;;;;;4939805;29;20043;-85
2022/05/14 00:28:49;;;;;;;3.58;1.30;;;8.60;99.90;;;;;;4938002;29;20051;-86
2022/05/14 00:31:17;;;;;;;7.97;1.80;;;8.60;99.90;;;;;;4941281;29;20051;-86
2022/05/14 00:33:46;;;;;;;4.85;1.33;;;8.60;99.90;;;;;;4934683;29;20059;-85
2022/05/14 00:36:15;;;;;;;4.68;1.13;;;8.60;99.90;;;;;;4938636;29;20060;-85
2022/05/14 00:38:42;;;;;;;5.22;1.30;;;8.50;99.90;;;;;;4939734;29;20420;-85
2022/05/14 00:41:11;;;;;;;6.97;1.95;;;8.50;99.90;;;;;;4939536;29;20098;-83
2022/05/14 00:43:50;;;;;;;6.20;1.50;;;8.50;99.90;;;;;;4940329;29;20071;-84
2022/05/14 00:46:21;;;;;;;4.95;1.85;;;8.50;99.90;;;;;;4946608;29;20114;-85
2022/05/14 00:48:51;;;;;;;13.75;1.83;;;8.50;99.90;;;;;;4940283;29;20047;-83
2022/05/14 00:51:25;;;;;;;4.38;1.95;;;8.50;99.90;;;;;;4933878;29;20059;-83
2022/05/14 00:53:57;;;;;;;6.72;1.73;;;8.40;99.90;;;;;;4918812;29;20086;-85
2022/05/14 00:56:30;;;;;;;4.15;1.77;;;8.40;99.90;;;;;;4932468;29;20051;-83
2022/05/14 00:59:03;;;;;;;5.25;1.55;;;8.40;99.90;;;;;;4935946;29;20052;-84
2022/05/14 01:01:33;;;;;;;;;;;8.30;99.90;;;;;;4918624;29;20044;-83
2022/05/14 01:04:00;;;;;;;9.30;2.08;;;8.30;99.90;;;;;;4935819;29;20024;-82
2022/05/14 01:06:30;;;;;;;6.85;2.03;;;8.30;99.90;;;;;;4918490;29;20535;-83
2022/05/14 01:08:59;;;;;;;4.35;1.65;;;8.30;99.90;;;;;;4935652;29;20087;-84
2022/05/14 01:11:29;;;;;;;6.07;1.75;;;8.30;99.90;;;;;;4918091;29;20062;-84
2022/05/14 01:13:58;;;;;;;8.13;1.55;;;8.30;99.90;;;;;;4934265;29;20147;-83
2022/05/14 01:16:26;;;;;;;8.52;2.03;;;8.30;99.90;;;;;;4934853;29;20056;-85
2022/05/14 01:18:55;;;;;;;11.05;2.13;;;8.30;99.90;;;;;;4921310;29;20052;-85
2022/05/14 01:21:32;;;;;;;8.65;3.05;;;8.30;99.90;;;;;;4940389;29;20515;-85
2022/05/14 01:26:59;;;;;;;7.22;2.10;;;8.30;99.90;;;;;;4939105;29;20456;-84
2022/05/14 01:29:28;;;;;;;6.38;1.98;;;8.30;99.90;;;;;;4938551;29;20119;-82
2022/05/14 01:32:02;;;;;;;5.45;2.35;;;8.20;99.90;;;;;;4937572;29;20047;-85
2022/05/14 01:34:34;;;;;;;8.15;2.33;;;8.20;99.90;;;;;;4938220;29;20044;-83
2022/05/14 01:37:05;;;;;;;7.03;2.00;;;8.20;99.90;;;;;;4922730;29;20409;-83
2022/05/14 01:39:38;;;;;;;7.00;2.28;;;8.20;99.90;;;;;;4915419;29;20056;-83
2022/05/14 01:42:08;;;;;;;9.07;1.95;;;8.20;99.90;;;;;;4918699;29;20115;-83
2022/05/14 01:44:36;;;;;;;8.15;2.63;;;8.20;99.90;;;;;;4917980;29;20123;-84
2022/05/14 01:47:04;;;;;;;9.30;2.95;;;8.20;99.90;;;;;;4923615;29;20062;-83
2022/05/14 01:49:32;;;;;;;7.40;2.20;;;8.20;99.90;;;;;;4938458;29;20087;-82
2022/05/14 01:52:01;;;;;;;7.35;2.00;;;8.20;99.90;;;;;;4937190;29;20052;-83
2022/05/14 01:54:29;;;;;;;6.53;1.98;;;8.20;99.90;;;;;;4937939;29;20319;-84
2022/05/14 01:56:57;;;;;;;6.20;2.10;;;8.30;99.90;;;;;;4921662;29;20103;-85
2022/05/14 01:59:26;;;;;;;6.22;1.52;;;8.30;99.90;;;;;;4937653;29;20059;-84
2022/05/14 02:01:54;;;;;;;9.35;1.88;;;8.30;99.90;;;;;;4922347;29;20056;-82
2022/05/14 02:04:22;;;;;;;7.13;1.40;;;8.30;99.90;;;;;;4937796;29;20055;-84
2022/05/14 02:06:52;;;;;;;5.72;1.75;;;8.30;99.90;;;;;;4921542;29;20048;-84
2022/05/14 02:09:20;;;;;;;6.70;1.70;;;8.30;99.90;;;;;;4919944;29;20115;-85
2022/05/14 02:11:52;;;;;;;4.75;1.50;;;8.30;99.90;;;;;;4921575;29;20051;-84
2022/05/14 02:14:33;;;;;;;6.15;1.85;;;8.30;99.90;;;;;;4919780;29;20048;-85
2022/05/14 02:17:00;;;;;;;5.65;1.80;;;8.30;99.90;;;;;;4936083;29;20051;-86
2022/05/14 02:19:33;;;;;;;5.35;1.92;;;8.30;99.90;;;;;;4935860;29;20055;-85
2022/05/14 02:22:01;;;;;;;4.05;1.70;;;8.30;99.90;;;;;;4937727;29;20153;-84
2022/05/14 02:24:28;;;;;;;4.60;1.55;;;8.30;99.90;;;;;;4935796;28;20046;-84
2022/05/14 02:26:56;;;;;;;8.68;2.00;;;8.40;99.90;;;;;;4936425;29;20603;-84
2022/05/14 02:29:24;;;;;;;6.22;2.00;;;8.40;99.90;;;;;;4936463;29;20055;-84
2022/05/14 02:31:53;;;;;;;4.25;1.58;;;8.40;99.90;;;;;;4937183;29;20083;-85
2022/05/14 02:34:20;;;;;;;9.38;2.08;;;8.40;99.90;;;;;;4934499;29;20059;-85
2022/05/14 02:36:50;;;;;;;7.05;1.88;;;8.40;99.90;;;;;;4933161;29;20061;-84
2022/05/14 02:39:18;;;;;;;6.80;1.77;;;8.40;99.90;;;;;;4936656;29;20138;-84
2022/05/14 02:41:46;;;;;;;7.25;1.65;;;8.40;99.90;;;;;;4936152;29;20125;-83
2022/05/14 02:44:13;;;;;;;3.97;1.67;;;8.50;99.90;;;;;;4933434;29;20055;-84
2022/05/14 02:46:41;;;;;;;9.13;2.20;;;8.40;99.90;;;;;;4935806;29;20087;-82
2022/05/14 02:49:10;;;;;;;8.55;1.88;;;8.50;99.90;;;;;;4935812;29;20532;-86
2022/05/14 02:51:39;;;;;;;7.43;2.03;;;8.50;99.90;;;;;;4936775;29;20073;-85
2022/05/14 02:54:07;;;;;;;6.20;2.05;;;8.40;99.90;;;;;;4943493;28;20051;-86
2022/05/14 02:56:34;;;;;;;5.28;1.50;;;8.50;99.90;;;;;;4939273;29;20638;-85
2022/05/14 02:59:08;;;;;;;4.45;1.60;;;8.50;99.90;;;;;;4942680;29;20586;-85
2022/05/14 03:01:47;;;;;;;5.32;1.70;;;8.60;99.90;;;;;;4932237;29;20051;-83
2022/05/14 03:04:22;;;;;;;7.03;1.48;;;8.60;99.90;;;;;;4934958;29;20095;-84
2022/05/14 03:06:51;;;;;;;4.40;1.95;;;8.60;99.90;;;;;;4937536;29;20054;-83
2022/05/14 03:09:19;;;;;;;7.95;1.40;;;8.60;99.90;;;;;;4971409;28;20051;-85
2022/05/14 03:11:48;;;;;;;5.90;1.83;;;8.60;99.90;;;;;;4937216;28;20082;-84
2022/05/14 03:14:16;;;;;;;5.60;1.42;;;8.70;99.90;;;;;;4934309;29;20053;-83
2022/05/14 03:16:45;;;;;;;3.70;1.40;;;8.70;99.90;;;;;;4919580;29;20055;-84
2022/05/14 03:19:14;;;;;;;4.43;1.90;;;8.70;99.90;;;;;;4933550;29;20091;-84
2022/05/14 03:21:43;;;;;;;4.05;1.50;;;8.70;99.90;;;;;;4927577;29;20079;-82
2022/05/14 03:24:12;;;;;;;6.72;2.67;;;8.80;99.90;;;;;;4913123;29;20150;-82
2022/05/14 03:26:39;;;;;;;9.75;2.15;;;8.80;99.90;;;;;;4925728;29;20527;-82
2022/05/14 03:29:07;;;;;;;4.63;1.33;;;8.80;99.90;;;;;;4887164;29;1344629;-83
2022/05/14 03:31:36;;;;;;;7.40;1.92;;;8.80;99.90;;;;;;4920596;29;20047;-83
2022/05/14 03:34:05;;;;;;;5.97;2.20;;;8.80;99.90;;;;;;4919827;29;20043;-83
2022/05/14 03:36:33;;;;;;;5.88;1.70;;;8.90;99.90;;;;;;4936484;29;20044;-84
2022/05/14 03:39:02;;;;;;;4.05;1.52;;;8.90;99.90;;;;;;4919194;29;20532;-83
2022/05/14 03:41:30;;;;;;;4.63;1.60;;;8.90;99.90;;;;;;4940691;29;20058;-83
2022/05/14 03:43:59;;;;;;;3.75;1.73;;;8.90;99.90;;;;;;4954712;28;20138;-85
2022/05/14 03:46:27;;;;;;;2.42;1.30;;;8.90;99.90;;;;;;4939442;29;20300;-84
2022/05/14 03:48:54;;;;;;;7.43;1.73;;;8.90;99.90;;;;;;4936754;28;20058;-82
2022/05/14 03:51:21;;;;;;;5.38;1.90;;;8.90;99.90;;;;;;4934590;29;20078;-83
2022/05/14 03:53:49;;;;;;;3.33;1.20;;;9.00;99.90;;;;;;4937028;29;20052;-84
2022/05/14 03:56:18;;;;;;;2.38;1.45;;;9.00;99.90;;;;;;4935134;29;20083;-83
2022/05/14 03:58:45;;;;;;;4.18;1.52;;;9.00;99.90;;;;;;4929631;29;20067;-83
2022/05/14 04:01:13;;;;;;;7.43;1.40;;;9.00;99.90;;;;;;4933618;29;20063;-82
2022/05/14 04:03:41;;;;;;;5.35;1.33;;;9.00;99.90;;;;;;4935910;29;20048;-83
2022/05/14 04:06:09;;;;;;;4.95;1.45;;;9.00;99.90;;;;;;4919911;29;20457;-83
2022/05/14 04:08:37;;;;;;;3.55;1.77;;;9.00;99.90;;;;;;4942122;28;20404;-84
2022/05/14 04:11:05;;;;;;;8.52;5.47;;;9.00;99.90;;;;;;4939285;28;20102;-84
2022/05/14 04:13:35;;;;;;;28.98;13.05;;;9.10;99.90;;;;;;4960169;28;20044;-84
2022/05/14 04:16:04;;;;;;;3.97;1.40;;;9.10;99.90;;;;;;4949582;29;20062;-84
2022/05/14 04:18:32;;;;;;;7.68;1.67;;;9.10;99.90;;;;;;4945958;28;20136;-83
2022/05/14 04:21:01;;;;;;;10.43;4.13;;;9.20;99.90;;;;;;4939109;28;20586;-83
2022/05/14 04:23:31;;;;;;;5.72;1.38;;;9.20;99.90;;;;;;4956425;28;20059;-83
2022/05/14 04:26:02;;;;;;;5.43;2.15;;;9.20;99.90;;;;;;4936293;28;20138;-83
2022/05/14 04:28:30;;;;;;;5.38;1.90;;;9.20;99.90;;;;;;4933549;29;20549;-82
2022/05/14 04:30:59;;;;;;;5.55;2.00;;;9.30;99.90;;;;;;4935637;29;20059;-83
2022/05/14 04:33:29;;;;;;;8.07;1.55;;;9.30;99.90;;;;;;4918109;29;20476;-82
2022/05/14 04:35:56;;;;;;;2.17;1.17;;;9.40;99.90;;;;;;4935555;29;20142;-82
2022/05/14 04:38:27;;;;;;;5.43;2.28;;;9.40;99.90;;;;;;4949710;29;20055;-85
2022/05/14 04:40:55;;;;;;;5.78;1.98;;;9.40;99.90;;;;;;4957975;28;20093;-83
2022/05/14 04:43:24;;;;;;;5.70;1.73;;;9.50;99.90;;;;;;4947392;28;20044;-84
2022/05/14 04:45:54;;;;;;;4.65;1.75;;;9.50;99.90;;;;;;4945618;29;20055;-87
2022/05/14 04:48:23;;;;;;;5.22;1.30;;;9.60;99.90;;;;;;4934504;29;20079;-88
2022/05/14 04:50:51;;;;;;;6.05;1.15;;;9.60;99.90;;;;;;4944600;29;20106;-88
2022/05/14 04:53:36;;;;;;;3.05;1.10;;;9.70;99.90;;;;;;4924111;29;20058;-84
2022/05/14 04:56:05;;;;;;;5.97;1.60;;;9.70;99.90;;;;;;4952010;29;20060;-84
2022/05/14 04:58:32;;;;;;;9.52;2.88;;;9.70;99.90;;;;;;4940473;29;20283;-84
2022/05/14 05:01:00;;;;;;;4.82;1.73;;;9.80;99.90;;;;;;4924456;29;20575;-84
2022/05/14 05:03:30;;;;;;;7.00;1.52;;;9.90;99.90;;;;;;4930501;29;20048;-83
2022/05/14 05:06:01;;;;;;;2.92;1.40;;;10.00;99.90;;;;;;4937449;29;20079;-81
2022/05/14 05:08:32;;;;;;;5.05;1.30;;;10.10;99.90;;;;;;4921298;29;20044;-79
2022/05/14 05:10:59;;;;;;;4.55;1.88;;;10.20;99.90;;;;;;4939365;29;20503;-83
2022/05/14 05:13:29;;;;;;;4.95;1.50;;;10.20;99.90;;;;;;4936693;29;20043;-77
2022/05/14 05:15:57;;;;;;;3.55;1.33;;;10.30;99.90;;;;;;4952489;29;20399;-80
2022/05/14 05:18:25;;;;;;;5.70;1.60;;;10.40;99.90;;;;;;4934981;29;20095;-79
2022/05/14 05:20:56;;;;;;;4.55;2.03;;;10.40;99.90;;;;;;4929891;29;20134;-79
2022/05/14 05:23:25;;;;;;;3.22;1.10;;;10.50;99.90;;;;;;4935574;29;20051;-80
2022/05/14 05:25:53;;;;;;;3.65;1.52;;;10.70;99.90;;;;;;4937681;29;20056;-81
2022/05/14 05:28:20;;;;;;;4.38;2.58;;;11.00;99.90;;;;;;4940684;29;20550;-82
2022/05/14 05:30:49;;;;;;;5.65;1.67;;;11.40;99.90;;;;;;4938297;29;20636;-81
2022/05/14 05:33:20;;;;;;;3.38;1.17;;;11.80;99.90;;;;;;4920006;29;20056;-81
2022/05/14 05:35:48;;;;;;;3.92;1.23;;;12.30;99.90;;;;;;4920290;29;20110;-81
2022/05/14 05:38:17;;;;;;;3.58;0.93;;;12.70;99.90;;;;;;4939091;29;20047;-81
2022/05/14 05:40:50;;;;;;;4.38;1.25;;;12.90;99.90;;;;;;4951101;29;20051;-82
2022/05/14 05:43:17;;;;;;;17.08;1.17;;;13.20;99.90;;;;;;4941484;29;20210;-84
2022/05/14 05:45:47;;;;;;;4.20;0.90;;;13.60;99.90;;;;;;4939647;29;20062;-82
2022/05/14 05:48:14;;;;;;;2.97;1.05;;;14.00;99.90;;;;;;4936775;29;20555;-81
2022/05/14 05:50:48;;;;;;;4.03;1.20;;;14.40;99.90;;;;;;4943703;29;20357;-81
2022/05/14 05:53:20;;;;;;;3.05;1.20;;;14.90;99.90;;;;;;4937309;29;20412;-81
2022/05/14 05:58:33;;;;;;;2.45;1.33;;;15.80;99.90;;;;;;4929594;29;20052;-80
2022/05/14 06:01:00;;;;;;;3.28;1.20;;;16.30;97.90;;;;;;4935861;29;20048;-79
2022/05/14 06:03:28;;;;;;;4.47;1.40;;;16.70;95.50;;;;;;4936712;29;20063;-79
2022/05/14 06:05:55;;;;;;;4.38;1.60;;;17.10;94.00;;;;;;4939685;29;20055;-79
2022/05/14 06:08:25;;;;;;;2.55;0.93;;;17.50;90.30;;;;;;4935004;29;20146;-81
2022/05/14 06:10:52;;;;;;;2.08;0.98;;;18.00;81.80;;;;;;4939286;29;20460;-81
2022/05/14 06:13:20;;;;;;;2.00;1.23;;;18.10;78.70;;;;;;4937634;29;20050;-78
2022/05/14 06:15:48;;;;;;;6.00;3.70;;;18.30;77.10;;;;;;4935187;29;20584;-81
2022/05/14 06:18:15;;;;;;;3.38;1.65;;;18.40;75.30;;;;;;4933635;29;20052;-78
2022/05/14 06:20:43;;;;;;;3.33;1.15;;;18.60;73.60;;;;;;4932738;29;20520;-77
2022/05/14 06:23:10;;;;;;;5.63;1.20;;;18.60;71.60;;;;;;4936473;29;20048;-79
2022/05/14 06:25:39;;;;;;;2.45;0.98;;;18.80;67.80;;;;;;4934574;29;20059;-78
2022/05/14 06:28:06;;;;;;;2.53;0.88;;;19.00;65.30;;;;;;4933221;29;20055;-78
2022/05/14 06:30:36;;;;;;;2.28;0.90;;;19.10;66.00;;;;;;4930814;29;20056;-79
2022/05/14 06:33:04;;;;;;;3.30;1.17;;;19.40;65.20;;;;;;4936471;29;20056;-78
2022/05/14 06:35:32;;;;;;;5.22;1.30;;;19.50;63.80;;;;;;4916582;29;20170;-79
2022/05/14 06:38:00;;;;;;;2.05;1.33;;;19.70;63.30;;;;;;4933516;29;20054;-79
2022/05/14 06:40:28;;;;;;;5.43;1.08;;;19.80;62.50;;;;;;4936552;29;20052;-78
2022/05/14 06:42:57;;;;;;;3.00;0.80;;;19.90;61.20;;;;;;4935366;29;20571;-79
2022/05/14 06:45:25;;;;;;;3.33;1.30;;;19.90;61.80;;;;;;4950269;29;20495;-81
2022/05/14 06:47:54;;;;;;;3.10;1.45;;;20.10;62.30;;;;;;4939054;29;20139;-81
2022/05/14 06:50:22;;;;;;;4.53;1.38;;;20.40;62.50;;;;;;4936161;29;20048;-80
2022/05/14 06:52:53;;;;;;;2.63;1.40;;;20.80;60.60;;;;;;4933992;29;20058;-79
2022/05/14 06:55:24;;;;;;;1.77;0.82;;;21.10;60.70;;;;;;4937196;29;20401;-80
2022/05/14 06:58:01;;;;;;;7.18;1.50;;;21.40;60.30;;;;;;4937222;29;20052;-79
2022/05/14 07:00:28;;;;;;;4.28;1.25;;;21.90;58.80;;;;;;4937303;29;20055;-82
2022/05/14 07:06:37;;;;;;;4.18;0.90;;;21.90;57.70;;;;;;4934563;29;20103;-81
2022/05/14 07:08:29;;;;;;;1.50;0.90;;;22.40;57.00;;;;;;4936066;29;20048;-81
2022/05/14 07:10:57;;;;;;;2.97;1.13;;;22.60;56.00;;;;;;4937155;29;20050;-77
2022/05/14 07:13:26;;;;;;;6.40;2.15;;;23.00;55.30;;;;;;4934160;29;20496;-76
2022/05/14 07:15:53;;;;;;;4.88;1.50;;;22.90;54.30;;;;;;4938136;29;20078;-82
2022/05/14 07:18:20;;;;;;;5.53;1.17;;;22.60;54.10;;;;;;4939350;29;20078;-83
2022/05/14 07:20:49;;;;;;;5.65;1.30;;;22.70;54.50;;;;;;4937074;29;20067;-85
2022/05/14 07:23:16;;;;;;;8.57;1.90;;;22.80;53.20;;;;;;4939814;29;20053;-83
2022/05/14 07:25:44;;;;;;;2.47;1.10;;;22.90;53.40;;;;;;4937738;29;20054;-83
2022/05/14 07:28:12;;;;;;;2.90;1.38;;;23.10;52.90;;;;;;4936872;29;20539;-83
2022/05/14 07:30:41;;;;;;;2.33;1.42;;;23.50;52.80;;;;;;4936557;29;20048;-84
2022/05/14 07:33:09;;;;;;;4.50;1.00;;;23.70;51.20;;;;;;4937511;29;20059;-84
2022/05/14 07:35:37;;;;;;;4.80;1.23;;;23.80;50.50;;;;;;4935909;29;20054;-79
2022/05/14 07:38:07;;;;;;;3.42;1.80;;;23.90;50.10;;;;;;4937274;29;20126;-87
2022/05/14 07:40:37;;;;;;;3.35;1.42;;;24.30;49.80;;;;;;4936329;29;20433;-82
2022/05/14 07:43:15;;;;;;;5.65;1.77;;;24.60;49.40;;;;;;4936698;29;20492;-84
2022/05/14 07:45:49;;;;;;;2.35;1.30;;;24.60;47.70;;;;;;4919445;29;20098;-82
2022/05/14 07:48:20;;;;;;;8.23;2.80;;;24.80;47.00;;;;;;4935752;29;20043;-81
2022/05/14 07:50:49;;;;;;;1.23;0.88;;;25.00;47.60;;;;;;4941163;29;20047;-82
2022/05/14 07:53:18;;;;;;;1.48;0.95;;;25.20;46.90;;;;;;4932388;29;20146;-81
2022/05/14 07:55:46;;;;;;;0.85;0.73;;;25.40;46.40;;;;;;4915070;29;20119;-79
2022/05/14 07:58:16;;;;;;;1.83;0.93;;;25.60;46.30;;;;;;4933033;28;20047;-80
2022/05/14 08:00:45;;;;;;;1.48;0.90;;;25.90;45.40;;;;;;4934789;29;20055;-83
2022/05/14 08:03:12;;;;;;;3.08;0.90;;;25.90;45.10;;;;;;4932888;29;20181;-82
2022/05/14 08:05:40;;;;;;;2.97;1.27;;;26.20;44.00;;;;;;4931900;29;20071;-87
2022/05/14 08:08:10;;;;;;;3.47;0.85;;;26.30;44.80;;;;;;4919317;29;20044;-82
2022/05/14 08:10:37;;;;;;;1.42;0.98;;;26.20;45.20;;;;;;4934536;29;20060;-78
2022/05/14 08:13:05;;;;;;;3.35;1.10;;;26.10;44.00;;;;;;4933778;29;20083;-80
2022/05/14 08:15:32;;;;;;;2.28;0.90;;;26.30;43.90;;;;;;4933488;29;20051;-77
2022/05/14 08:18:01;;;;;;;4.50;0.82;;;26.00;44.20;;;;;;4935608;29;20043;-78
2022/05/14 08:20:28;;;;;;;1.42;0.93;;;25.80;44.60;;;;;;4934787;29;20582;-81
2022/05/14 08:25:40;;;;;;;2.85;1.48;;;25.70;44.40;;;;;;4934596;29;20559;-78
2022/05/14 08:28:08;;;;;;;2.30;0.93;;;25.40;45.20;;;;;;4928341;29;20061;-83
2022/05/14 08:30:36;;;;;;;3.88;0.85;;;25.50;44.80;;;;;;4940163;29;20090;-84
2022/05/14 08:33:07;;;;;;;3.40;0.90;;;25.70;44.20;;;;;;4934046;28;20070;-81
2022/05/14 08:35:35;;;;;;;2.97;1.00;;;25.90;43.70;;;;;;4931695;29;20103;-79
2022/05/14 08:38:03;;;;;;;2.38;1.65;;;26.30;43.90;;;;;;4931019;29;20044;-78
2022/05/14 08:40:34;;;;;;;3.45;0.80;;;26.80;43.70;;;;;;4930830;29;20056;-79
2022/05/14 08:43:06;;;;;;;3.60;0.80;;;26.90;42.70;;;;;;4918882;29;20090;-81
2022/05/14 08:45:37;;;;;;;3.42;0.70;;;27.30;41.30;;;;;;4935075;29;20059;-79
2022/05/14 08:48:14;;;;;;;2.65;0.80;;;27.10;41.70;;;;;;4932798;29;20408;-80
2022/05/14 08:50:50;;;;;;;0.90;0.73;;;27.00;41.80;;;;;;5027571;23;20109;-85
2022/05/14 08:53:22;;;;;;;3.30;1.00;;;26.80;42.50;;;;;;4980325;28;20066;-79
2022/05/14 08:56:03;;;;;;;2.97;1.53;;;27.00;42.20;;;;;;4956388;28;20086;-87
2022/05/14 08:58:44;;;;;;;2.30;0.68;;;27.30;42.40;;;;;;4952979;29;20112;-84
2022/05/14 09:01:15;;;;;;;2.15;1.38;;;27.60;42.10;;;;;;4952295;28;20058;-81
2022/05/14 09:03:45;;;;;;;5.25;0.60;;;27.90;41.20;;;;;;4953473;28;20527;-83
2022/05/14 09:06:15;;;;;;;1.05;0.82;;;27.70;40.90;;;;;;4952345;28;20063;-81
2022/05/14 09:08:43;;;;;;;1.75;0.80;;;27.70;41.40;;;;;;4951359;28;20057;-80
2022/05/14 09:11:23;;;;;;;2.97;0.85;;;27.70;40.00;;;;;;4951581;28;20051;-80
2022/05/14 09:13:53;;;;;;;2.60;0.98;;;27.70;40.00;;;;;;4951984;28;20059;-78
2022/05/14 09:16:28;;;;;;;4.50;0.80;;;28.20;40.20;;;;;;4950234;28;20059;-80
2022/05/14 09:18:58;;;;;;;2.22;1.13;;;28.30;39.60;;;;;;4953677;29;20079;-80
2022/05/14 09:21:28;;;;;;;1.00;0.77;;;28.40;39.50;;;;;;4960576;29;20059;-80
2022/05/14 09:23:58;;;;;;;2.15;1.90;;;28.50;38.90;;;;;;4958715;28;20043;-80
2022/05/14 09:26:29;;;;;;;0.88;0.70;;;28.70;39.10;;;;;;4953504;28;20636;-81
2022/05/14 09:29:01;;;;;;;2.53;0.85;;;29.00;38.50;;;;;;4955165;28;20487;-80
2022/05/14 09:31:32;;;;;;;1.88;1.10;;;29.40;37.70;;;;;;4954871;28;20099;-82
2022/05/14 09:34:07;;;;;;;0.80;0.50;;;29.20;38.10;;;;;;4953502;28;20057;-83
2022/05/14 09:36:37;;;;;;;3.50;0.70;;;29.10;38.20;;;;;;4950095;29;20362;-82
2022/05/14 09:39:08;;;;;;;4.20;0.70;;;29.10;37.40;;;;;;4959822;28;20154;-85
2022/05/14 09:41:42;;;;;;;3.13;0.50;;;28.90;37.90;;;;;;4962557;29;20078;-84
2022/05/14 09:44:17;;;;;;;2.70;0.70;;;28.80;38.50;;;;;;4959039;28;20061;-83
2022/05/14 09:46:47;;;;;;;2.67;0.65;;;28.70;38.50;;;;;;4959039;29;20301;-83
2022/05/14 09:49:22;;;;;;;0.73;0.43;;;28.80;38.30;;;;;;4962318;28;20125;-85
2022/05/14 09:51:57;;;;;;;0.75;0.55;;;28.80;38.50;;;;;;4963496;28;20072;-80
2022/05/14 09:54:34;;;;;;;1.83;0.90;;;29.10;38.00;;;;;;4957736;28;20070;-81
2022/05/14 09:57:21;;;;;;;3.08;0.73;;;29.10;37.80;;;;;;4958068;29;20087;-83
2022/05/14 10:00:10;;;;;;;1.30;1.05;;;29.20;38.10;;;;;;4961353;29;20070;-84
2022/05/14 10:02:49;;;;;;;;;;;29.10;38.30;;;;;;4956881;28;20564;-87
2022/05/14 10:05:34;;;;;;;6.03;0.90;;;29.40;37.90;;;;;;4958636;28;19934;-86
2022/05/14 10:08:21;;;;;;;2.78;0.50;;;29.40;38.10;;;;;;4962634;29;20087;-86
2022/05/14 10:10:55;;;;;;;0.95;0.63;;;29.50;37.10;;;;;;4964926;28;20047;-87
2022/05/14 10:13:32;;;;;;;6.32;1.13;;;29.40;37.60;;;;;;4960917;28;20102;-83
2022/05/14 10:16:05;;;;;;;2.58;0.80;;;29.50;38.10;;;;;;4958611;28;20047;-82
2022/05/14 10:19:01;;;;;;;1.27;1.05;;;29.40;37.50;;;;;;4961702;28;20055;-85
2022/05/14 10:21:40;;;;;;;0.80;0.60;;;29.70;37.00;;;;;;4956683;29;20152;-85
2022/05/14 10:27:22;;;;;;;1.65;0.75;;;29.90;38.30;;;;;;4958706;29;20062;-84
2022/05/14 10:30:03;;;;;;;1.95;1.10;;;30.00;37.50;;;;;;4956797;28;20142;-85
2022/05/14 10:32:37;;;;;;;0.60;0.60;;;30.10;38.30;;;;;;4953245;29;20538;-83
2022/05/14 10:35:11;;;;;;;2.15;0.80;;;30.10;36.50;;;;;;4954434;29;20047;-83
2022/05/14 10:37:50;;;;;;;1.40;0.85;;;30.10;36.50;;;;;;4955424;29;20054;-83
2022/05/14 10:40:25;;;;;;;1.88;0.68;;;29.90;36.80;;;;;;4952675;28;20134;-80
2022/05/14 10:43:08;;;;;;;5.70;0.88;;;30.20;36.90;;;;;;4940192;29;20247;-79
2022/05/14 10:45:41;;;;;;;1.00;0.60;;;30.40;36.80;;;;;;4955229;28;20047;-82
2022/05/14 10:48:22;;;;;;;2.60;0.88;;;30.60;36.10;;;;;;4957181;28;20043;-82
2022/05/14 10:50:49;;;;;;;1.20;0.60;;;30.60;35.90;;;;;;4950124;28;20055;-83
2022/05/14 10:53:22;;;;;;;1.70;0.60;;;30.20;35.40;;;;;;4953440;29;20059;-83
2022/05/14 10:55:57;;;;;;;1.90;0.63;;;30.10;36.20;;;;;;4953844;29;20043;-83
2022/05/14 10:58:39;;;;;;;5.68;0.65;;;30.00;36.30;;;;;;4952728;29;20063;-83
2022/05/14 11:01:29;;;;;;;4.20;0.75;;;30.00;35.90;;;;;;4952246;29;20412;-83
2022/05/14 11:03:59;;;;;;;0.77;0.60;;;30.10;35.20;;;;;;4956225;28;20110;-83
2022/05/14 11:06:32;;;;;;;1.40;0.40;;;30.10;35.60;;;;;;4956123;29;20058;-81
2022/05/14 11:09:16;;;;;;;4.43;0.65;;;30.40;35.30;;;;;;4952654;28;20051;-83
2022/05/14 11:11:49;;;;;;;2.35;0.75;;;30.50;35.60;;;;;;4956069;28;20053;-82
2022/05/14 11:14:16;;;;;;;3.03;0.50;;;30.60;35.40;;;;;;4938972;29;20075;-83
2022/05/14 11:16:47;;;;;;;4.75;1.00;;;30.60;35.50;;;;;;4958474;28;20408;-83
2022/05/14 11:19:27;;;;;;;1.98;0.60;;;30.60;35.20;;;;;;4959595;28;20078;-85
2022/05/14 11:21:55;;;;;;;1.90;0.60;;;30.70;34.50;;;;;;4963344;28;20058;-84
2022/05/14 11:24:43;;;;;;;2.35;0.70;;;31.00;35.00;;;;;;4959394;28;20575;-83
2022/05/14 11:27:14;;;;;;;0.60;0.60;;;31.20;35.00;;;;;;4957577;28;20518;-84
2022/05/14 11:29:50;;;;;;;2.08;0.60;;;31.40;34.90;;;;;;4953634;28;20051;-83
2022/05/14 11:32:20;;;;;;;0.40;0.40;;;31.50;34.90;;;;;;4956729;28;20411;-84
2022/05/14 11:34:54;;;;;;;6.20;0.50;;;31.40;33.80;;;;;;4955047;28;20167;-83
2022/05/14 11:37:29;;;;;;;2.20;0.70;;;31.50;34.30;;;;;;4961281;29;20054;-85
2022/05/14 11:40:17;;;;;;;1.40;0.82;;;31.30;33.20;;;;;;4960348;28;20142;-83
2022/05/14 11:42:46;;;;;;;2.05;0.50;;;31.30;34.00;;;;;;4963768;28;20051;-84
2022/05/14 11:45:17;;;;;;;2.83;0.40;;;31.20;33.40;;;;;;4950731;28;20071;-85
2022/05/14 11:48:12;;;;;;;1.70;0.43;;;31.20;33.80;;;;;;4961144;28;20123;-82
2022/05/14 11:50:52;;;;;;;5.32;2.65;;;31.60;33.90;;;;;;4933719;29;20158;-85
2022/05/14 11:53:29;;;;;;;0.70;0.50;;;31.80;33.10;;;;;;4956999;29;20051;-84
2022/05/14 11:56:06;;;;;;;1.85;0.40;;;31.80;33.30;;;;;;4960442;29;20051;-86
2022/05/14 11:58:40;;;;;;;2.58;0.50;;;32.20;32.40;;;;;;4956689;29;20058;-84
2022/05/14 12:01:13;;;;;;;1.38;0.40;;;32.00;32.90;;;;;;4941931;28;20047;-85
2022/05/14 12:03:50;;;;;;;0.77;0.50;;;31.90;32.30;;;;;;4954771;28;20054;-83
2022/05/14 12:06:52;;;;;;;0.95;0.45;;;31.90;32.70;;;;;;4957776;29;20063;-85
2022/05/14 12:09:51;;;;;;;2.63;0.57;;;32.10;32.20;;;;;;4959337;28;20082;-83
2022/05/14 12:12:29;;;;;;;4.15;0.65;;;32.60;31.90;;;;;;4954180;28;20054;-86
2022/05/14 12:15:05;;;;;;;1.15;0.43;;;32.70;32.00;;;;;;4948702;28;20102;-82
2022/05/14 12:17:33;;;;;;;1.60;0.65;;;32.60;31.90;;;;;;4938137;29;20053;-83
2022/05/14 12:20:01;;;;;;;1.75;0.35;;;32.80;31.40;;;;;;4958679;28;20056;-84
2022/05/14 12:22:40;;;;;;;1.20;0.35;;;32.70;31.30;;;;;;4958798;28;20209;-86
2022/05/14 12:25:11;;;;;;;1.92;0.50;;;32.80;31.30;;;;;;4956011;29;20147;-84
2022/05/14 12:27:52;;;;;;;2.83;1.00;;;32.70;31.50;;;;;;4959855;28;20094;-84
2022/05/14 12:33:15;;;;;;;2.63;0.80;;;32.90;31.20;;;;;;4951074;29;20165;-81
2022/05/14 12:35:45;;;;;;;0.60;0.40;;;32.90;31.30;;;;;;4953266;28;20161;-83
2022/05/14 12:38:14;;;;;;;1.38;0.60;;;33.30;31.50;;;;;;4953713;28;20094;-84
2022/05/14 12:40:41;;;;;;;4.18;0.60;;;33.50;31.30;;;;;;4950720;28;20065;-83
2022/05/14 12:43:15;;;;;;;4.55;0.70;;;33.70;31.50;;;;;;4952752;28;20558;-82
2022/05/14 12:45:50;;;;;;;1.73;0.70;;;33.70;30.80;;;;;;4950081;28;20083;-83
2022/05/14 12:48:18;;;;;;;1.75;0.70;;;33.70;30.60;;;;;;4955433;28;20055;-83
2022/05/14 12:50:53;;;;;;;1.35;0.85;;;33.50;30.90;;;;;;4951374;28;20039;-83
2022/05/14 12:53:21;;;;;;;3.83;0.65;;;33.50;30.50;;;;;;4952935;28;20087;-84
2022/05/14 12:55:54;;;;;;;1.83;0.68;;;33.70;29.80;;;;;;4955066;28;20447;-86
2022/05/14 12:58:23;;;;;;;2.75;0.52;;;33.50;29.30;;;;;;4951729;28;20503;-82
2022/05/14 13:00:53;;;;;;;3.47;0.40;;;32.90;29.50;;;;;;4955165;28;20047;-83
2022/05/14 13:03:27;;;;;;;0.50;0.40;;;32.70;29.20;;;;;;4954309;28;20056;-82
2022/05/14 13:05:58;;;;;;;2.08;0.45;;;32.90;29.40;;;;;;4954920;28;20218;-80
2022/05/14 13:08:27;;;;;;;1.23;0.53;;;33.10;29.10;;;;;;4953126;28;20051;-83
2022/05/14 13:10:58;;;;;;;3.97;0.50;;;33.20;29.20;;;;;;4954112;29;20361;-83
2022/05/14 13:13:37;;;;;;;3.30;0.60;;;33.50;29.10;;;;;;4955284;28;20078;-82
2022/05/14 13:16:13;;;;;;;0.95;0.63;;;33.50;28.60;;;;;;4959366;28;20094;-81
2022/05/14 13:18:44;;;;;;;5.90;0.70;;;33.40;28.80;;;;;;4954688;29;20059;-80
2022/05/14 13:21:19;;;;;;;2.30;0.73;;;33.40;28.70;;;;;;4956574;28;20047;-84
2022/05/14 13:23:55;;;;;;;3.75;0.65;;;33.30;28.40;;;;;;4954285;28;20069;-82
2022/05/14 13:26:33;;;;;;;3.10;0.70;;;33.60;28.80;;;;;;4958532;28;20107;-84
2022/05/14 13:29:13;;;;;;;2.50;0.60;;;33.40;29.00;;;;;;4956294;28;20074;-83
2022/05/14 13:31:42;;;;;;;4.13;0.50;;;33.20;29.00;;;;;;4948027;29;20043;-84